sensor_id;sensor_type;location;lat;lon;timestamp;P1;durP1;ratioP1;P2;durP2;ratioP2
20593;SDS011;10455;48.732;10.266;2024-01-27T00:00:31;6.90;;;6.27;;
20593;SDS011;10455;48.732;10.266;2024-01-27T00:05:33;9.57;;;7.80;;
20593;SDS011;10455;48.732;10.266;2024-01-27T00:10:35;10.50;;;7.23;;
20593;SDS011;10455;48.732;10.266;2024-01-27T00:15:39;10.30;;;7.53;;
20593;SDS011;10455;48.732;10.266;2024-01-27T00:20:41;6.37;;;5.73;;
20593;SDS011;10455;48.732;10.266;2024-01-27T00:25:43;7.17;;;6.23;;
20593;SDS011;10455;48.732;10.266;2024-01-27T00:30:46;7.83;;;6.83;;
20593;SDS011;10455;48.732;10.266;2024-01-27T00:35:49;11.47;;;7.20;;
20593;SDS011;10455;48.732;10.266;2024-01-27T00:40:51;9.07;;;7.30;;
20593;SDS011;10455;48.732;10.266;2024-01-27T00:45:54;8.00;;;6.23;;
20593;SDS011;10455;48.732;10.266;2024-01-27T00:50:57;11.47;;;7.17;;
20593;SDS011;10455;48.732;10.266;2024-01-27T00:55:59;11.90;;;7.03;;
20593;SDS011;10455;48.732;10.266;2024-01-27T01:01:03;16.43;;;7.30;;
20593;SDS011;10455;48.732;10.266;2024-01-27T01:06:05;9.73;;;6.77;;
20593;SDS011;10455;48.732;10.266;2024-01-27T01:11:07;9.27;;;6.10;;
20593;SDS011;10455;48.732;10.266;2024-01-27T01:16:11;11.13;;;7.40;;
20593;SDS011;10455;48.732;10.266;2024-01-27T01:21:13;8.93;;;7.47;;
20593;SDS011;10455;48.732;10.266;2024-01-27T01:26:15;10.57;;;8.50;;
20593;SDS011;10455;48.732;10.266;2024-01-27T01:31:18;12.47;;;8.20;;
20593;SDS011;10455;48.732;10.266;2024-01-27T01:36:20;9.53;;;7.23;;
20593;SDS011;10455;48.732;10.266;2024-01-27T01:41:22;13.70;;;7.90;;
20593;SDS011;10455;48.732;10.266;2024-01-27T01:46:25;12.30;;;8.20;;
20593;SDS011;10455;48.732;10.266;2024-01-27T01:51:27;19.70;;;8.47;;
20593;SDS011;10455;48.732;10.266;2024-01-27T01:56:29;11.43;;;7.67;;
20593;SDS011;10455;48.732;10.266;2024-01-27T02:01:32;11.07;;;7.50;;
20593;SDS011;10455;48.732;10.266;2024-01-27T02:06:34;13.27;;;7.73;;
20593;SDS011;10455;48.732;10.266;2024-01-27T02:11:36;12.57;;;7.93;;
20593;SDS011;10455;48.732;10.266;2024-01-27T02:16:40;15.87;;;7.77;;
20593;SDS011;10455;48.732;10.266;2024-01-27T02:21:41;15.47;;;8.40;;
20593;SDS011;10455;48.732;10.266;2024-01-27T02:26:45;17.60;;;7.83;;
20593;SDS011;10455;48.732;10.266;2024-01-27T02:31:46;14.30;;;7.73;;
20593;SDS011;10455;48.732;10.266;2024-01-27T02:36:48;13.33;;;8.30;;
20593;SDS011;10455;48.732;10.266;2024-01-27T02:41:52;14.07;;;7.73;;
20593;SDS011;10455;48.732;10.266;2024-01-27T02:46:54;11.93;;;7.63;;
20593;SDS011;10455;48.732;10.266;2024-01-27T02:51:56;15.87;;;8.27;;
20593;SDS011;10455;48.732;10.266;2024-01-27T02:56:59;17.10;;;7.80;;
20593;SDS011;10455;48.732;10.266;2024-01-27T03:02:01;11.50;;;7.53;;
20593;SDS011;10455;48.732;10.266;2024-01-27T03:07:03;13.10;;;7.80;;
20593;SDS011;10455;48.732;10.266;2024-01-27T03:12:07;15.83;;;7.87;;
20593;SDS011;10455;48.732;10.266;2024-01-27T03:17:09;13.80;;;7.63;;
20593;SDS011;10455;48.732;10.266;2024-01-27T03:22:11;11.63;;;7.47;;
20593;SDS011;10455;48.732;10.266;2024-01-27T03:27:14;17.37;;;8.53;;
20593;SDS011;10455;48.732;10.266;2024-01-27T03:32:16;17.83;;;7.70;;
20593;SDS011;10455;48.732;10.266;2024-01-27T03:37:18;20.87;;;8.87;;
20593;SDS011;10455;48.732;10.266;2024-01-27T03:42:23;18.57;;;8.93;;
20593;SDS011;10455;48.732;10.266;2024-01-27T03:47:25;20.13;;;8.43;;
20593;SDS011;10455;48.732;10.266;2024-01-27T03:52:27;16.87;;;9.17;;
20593;SDS011;10455;48.732;10.266;2024-01-27T03:57:30;20.70;;;8.63;;
20593;SDS011;10455;48.732;10.266;2024-01-27T04:02:32;17.17;;;8.93;;
20593;SDS011;10455;48.732;10.266;2024-01-27T04:07:34;20.33;;;10.80;;
20593;SDS011;10455;48.732;10.266;2024-01-27T04:12:37;20.70;;;10.53;;
20593;SDS011;10455;48.732;10.266;2024-01-27T04:17:39;17.87;;;10.00;;
20593;SDS011;10455;48.732;10.266;2024-01-27T04:22:42;31.10;;;10.70;;
20593;SDS011;10455;48.732;10.266;2024-01-27T04:27:45;19.63;;;11.17;;
20593;SDS011;10455;48.732;10.266;2024-01-27T04:32:47;26.37;;;10.97;;
20593;SDS011;10455;48.732;10.266;2024-01-27T04:37:51;25.40;;;11.20;;
20593;SDS011;10455;48.732;10.266;2024-01-27T04:42:55;24.27;;;10.67;;
20593;SDS011;10455;48.732;10.266;2024-01-27T04:47:57;20.00;;;11.17;;
20593;SDS011;10455;48.732;10.266;2024-01-27T04:53:01;28.07;;;13.53;;
20593;SDS011;10455;48.732;10.266;2024-01-27T04:58:04;27.70;;;12.73;;
20593;SDS011;10455;48.732;10.266;2024-01-27T05:03:08;28.00;;;12.27;;
20593;SDS011;10455;48.732;10.266;2024-01-27T05:08:13;18.60;;;10.50;;
20593;SDS011;10455;48.732;10.266;2024-01-27T05:13:17;31.63;;;13.00;;
20593;SDS011;10455;48.732;10.266;2024-01-27T05:18:18;25.20;;;12.53;;
20593;SDS011;10455;48.732;10.266;2024-01-27T05:23:20;18.83;;;10.77;;
20593;SDS011;10455;48.732;10.266;2024-01-27T05:28:24;24.30;;;13.03;;
20593;SDS011;10455;48.732;10.266;2024-01-27T05:33:26;25.47;;;13.47;;
20593;SDS011;10455;48.732;10.266;2024-01-27T05:38:28;27.40;;;13.97;;
20593;SDS011;10455;48.732;10.266;2024-01-27T05:43:33;18.50;;;10.47;;
20593;SDS011;10455;48.732;10.266;2024-01-27T05:48:35;21.63;;;13.13;;
20593;SDS011;10455;48.732;10.266;2024-01-27T05:53:37;22.83;;;11.40;;
20593;SDS011;10455;48.732;10.266;2024-01-27T05:58:40;19.50;;;9.83;;
20593;SDS011;10455;48.732;10.266;2024-01-27T06:03:42;25.50;;;10.97;;
20593;SDS011;10455;48.732;10.266;2024-01-27T06:08:44;16.63;;;10.53;;
20593;SDS011;10455;48.732;10.266;2024-01-27T06:13:48;20.63;;;11.37;;
20593;SDS011;10455;48.732;10.266;2024-01-27T06:18:50;23.57;;;10.93;;
20593;SDS011;10455;48.732;10.266;2024-01-27T06:23:52;16.60;;;9.13;;
20593;SDS011;10455;48.732;10.266;2024-01-27T06:28:55;22.53;;;10.33;;
20593;SDS011;10455;48.732;10.266;2024-01-27T06:33:57;12.10;;;8.37;;
20593;SDS011;10455;48.732;10.266;2024-01-27T06:38:59;17.47;;;8.50;;
20593;SDS011;10455;48.732;10.266;2024-01-27T06:44:02;21.47;;;8.20;;
20593;SDS011;10455;48.732;10.266;2024-01-27T06:49:04;17.70;;;9.00;;
20593;SDS011;10455;48.732;10.266;2024-01-27T06:54:06;16.23;;;8.63;;
20593;SDS011;10455;48.732;10.266;2024-01-27T06:59:09;12.57;;;7.80;;
20593;SDS011;10455;48.732;10.266;2024-01-27T07:04:11;22.37;;;10.40;;
20593;SDS011;10455;48.732;10.266;2024-01-27T07:09:13;18.93;;;7.70;;
20593;SDS011;10455;48.732;10.266;2024-01-27T07:14:16;17.20;;;9.73;;
20593;SDS011;10455;48.732;10.266;2024-01-27T07:19:18;21.67;;;10.30;;
20593;SDS011;10455;48.732;10.266;2024-01-27T07:24:20;16.57;;;8.60;;
20593;SDS011;10455;48.732;10.266;2024-01-27T07:29:23;17.13;;;8.30;;
20593;SDS011;10455;48.732;10.266;2024-01-27T07:34:25;18.80;;;9.07;;
20593;SDS011;10455;48.732;10.266;2024-01-27T07:39:27;15.90;;;8.97;;
20593;SDS011;10455;48.732;10.266;2024-01-27T07:44:30;19.43;;;7.93;;
20593;SDS011;10455;48.732;10.266;2024-01-27T07:49:32;16.17;;;8.67;;
20593;SDS011;10455;48.732;10.266;2024-01-27T07:54:34;12.30;;;8.37;;
20593;SDS011;10455;48.732;10.266;2024-01-27T07:59:40;12.03;;;8.50;;
20593;SDS011;10455;48.732;10.266;2024-01-27T08:04:42;16.20;;;10.60;;
20593;SDS011;10455;48.732;10.266;2024-01-27T08:09:44;18.73;;;10.20;;
20593;SDS011;10455;48.732;10.266;2024-01-27T08:14:47;16.70;;;10.47;;
20593;SDS011;10455;48.732;10.266;2024-01-27T08:19:49;17.97;;;11.33;;
20593;SDS011;10455;48.732;10.266;2024-01-27T08:24:51;15.00;;;10.00;;
20593;SDS011;10455;48.732;10.266;2024-01-27T08:29:54;14.17;;;11.10;;
20593;SDS011;10455;48.732;10.266;2024-01-27T08:34:56;17.13;;;11.27;;
20593;SDS011;10455;48.732;10.266;2024-01-27T08:39:58;20.97;;;10.43;;
20593;SDS011;10455;48.732;10.266;2024-01-27T08:45:01;17.57;;;10.90;;
20593;SDS011;10455;48.732;10.266;2024-01-27T08:50:04;18.43;;;10.67;;
20593;SDS011;10455;48.732;10.266;2024-01-27T08:55:07;18.07;;;8.50;;
20593;SDS011;10455;48.732;10.266;2024-01-27T09:00:12;18.70;;;10.23;;
20593;SDS011;10455;48.732;10.266;2024-01-27T09:05:15;17.03;;;9.77;;
20593;SDS011;10455;48.732;10.266;2024-01-27T09:10:17;17.97;;;10.70;;
20593;SDS011;10455;48.732;10.266;2024-01-27T09:15:20;14.13;;;10.63;;
20593;SDS011;10455;48.732;10.266;2024-01-27T09:20:22;15.20;;;9.33;;
20593;SDS011;10455;48.732;10.266;2024-01-27T09:25:24;19.53;;;10.23;;
20593;SDS011;10455;48.732;10.266;2024-01-27T09:30:27;22.07;;;12.00;;
20593;SDS011;10455;48.732;10.266;2024-01-27T09:35:29;13.73;;;8.07;;
20593;SDS011;10455;48.732;10.266;2024-01-27T09:40:31;20.23;;;11.47;;
20593;SDS011;10455;48.732;10.266;2024-01-27T09:45:34;9.65;;;5.57;;
20593;SDS011;10455;48.732;10.266;2024-01-27T09:50:37;9.10;;;4.80;;
20593;SDS011;10455;48.732;10.266;2024-01-27T09:55:43;7.05;;;4.28;;
20593;SDS011;10455;48.732;10.266;2024-01-27T10:00:47;8.48;;;3.78;;
20593;SDS011;10455;48.732;10.266;2024-01-27T10:05:49;15.18;;;4.85;;
20593;SDS011;10455;48.732;10.266;2024-01-27T10:10:53;7.30;;;3.58;;
20593;SDS011;10455;48.732;10.266;2024-01-27T10:16:01;15.93;;;4.35;;
20593;SDS011;10455;48.732;10.266;2024-01-27T10:21:12;9.98;;;4.45;;
20593;SDS011;10455;48.732;10.266;2024-01-27T10:26:14;17.90;;;13.07;;
20593;SDS011;10455;48.732;10.266;2024-01-27T10:31:17;6.55;;;3.47;;
20593;SDS011;10455;48.732;10.266;2024-01-27T10:36:23;6.03;;;3.42;;
20593;SDS011;10455;48.732;10.266;2024-01-27T10:41:26;5.78;;;3.53;;
20593;SDS011;10455;48.732;10.266;2024-01-27T10:46:29;16.17;;;5.05;;
20593;SDS011;10455;48.732;10.266;2024-01-27T10:51:32;7.50;;;3.92;;
20593;SDS011;10455;48.732;10.266;2024-01-27T10:56:36;10.02;;;4.30;;
20593;SDS011;10455;48.732;10.266;2024-01-27T11:01:41;7.47;;;3.65;;
20593;SDS011;10455;48.732;10.266;2024-01-27T11:06:44;10.90;;;5.10;;
20593;SDS011;10455;48.732;10.266;2024-01-27T11:11:46;8.00;;;3.45;;
20593;SDS011;10455;48.732;10.266;2024-01-27T11:16:55;8.77;;;3.35;;
20593;SDS011;10455;48.732;10.266;2024-01-27T11:22:00;5.13;;;3.20;;
20593;SDS011;10455;48.732;10.266;2024-01-27T11:27:03;4.78;;;3.03;;
20593;SDS011;10455;48.732;10.266;2024-01-27T11:32:07;5.38;;;2.95;;
20593;SDS011;10455;48.732;10.266;2024-01-27T11:37:11;5.45;;;2.78;;
20593;SDS011;10455;48.732;10.266;2024-01-27T11:42:13;7.75;;;2.63;;
20593;SDS011;10455;48.732;10.266;2024-01-27T11:47:18;5.15;;;2.92;;
20593;SDS011;10455;48.732;10.266;2024-01-27T11:52:20;6.13;;;3.30;;
20593;SDS011;10455;48.732;10.266;2024-01-27T11:57:22;7.95;;;3.05;;
20593;SDS011;10455;48.732;10.266;2024-01-27T12:02:26;4.63;;;3.00;;
20593;SDS011;10455;48.732;10.266;2024-01-27T12:07:28;5.70;;;2.92;;
20593;SDS011;10455;48.732;10.266;2024-01-27T12:12:31;3.75;;;2.60;;
20593;SDS011;10455;48.732;10.266;2024-01-27T12:17:34;4.80;;;3.00;;
20593;SDS011;10455;48.732;10.266;2024-01-27T12:22:36;5.75;;;2.60;;
20593;SDS011;10455;48.732;10.266;2024-01-27T12:27:38;5.63;;;3.00;;
20593;SDS011;10455;48.732;10.266;2024-01-27T12:32:42;2.58;;;2.22;;
20593;SDS011;10455;48.732;10.266;2024-01-27T12:37:44;6.22;;;2.88;;
20593;SDS011;10455;48.732;10.266;2024-01-27T12:42:46;8.05;;;4.60;;
20593;SDS011;10455;48.732;10.266;2024-01-27T12:47:49;7.88;;;5.60;;
20593;SDS011;10455;48.732;10.266;2024-01-27T12:52:51;8.77;;;5.28;;
20593;SDS011;10455;48.732;10.266;2024-01-27T12:57:54;9.27;;;5.45;;
20593;SDS011;10455;48.732;10.266;2024-01-27T13:02:58;12.02;;;6.13;;
20593;SDS011;10455;48.732;10.266;2024-01-27T13:08:00;11.68;;;5.22;;
20593;SDS011;10455;48.732;10.266;2024-01-27T13:13:04;8.05;;;5.00;;
20593;SDS011;10455;48.732;10.266;2024-01-27T13:18:07;8.85;;;5.20;;
20593;SDS011;10455;48.732;10.266;2024-01-27T13:23:10;7.82;;;5.13;;
20593;SDS011;10455;48.732;10.266;2024-01-27T13:28:12;7.95;;;5.07;;
20593;SDS011;10455;48.732;10.266;2024-01-27T13:33:15;10.63;;;4.90;;
20593;SDS011;10455;48.732;10.266;2024-01-27T13:38:17;7.93;;;4.82;;
20593;SDS011;10455;48.732;10.266;2024-01-27T13:43:23;7.13;;;4.22;;
20593;SDS011;10455;48.732;10.266;2024-01-27T13:48:26;5.20;;;4.03;;
20593;SDS011;10455;48.732;10.266;2024-01-27T13:53:29;5.40;;;4.07;;
20593;SDS011;10455;48.732;10.266;2024-01-27T13:58:31;7.68;;;4.45;;
20593;SDS011;10455;48.732;10.266;2024-01-27T14:03:34;6.88;;;5.00;;
20593;SDS011;10455;48.732;10.266;2024-01-27T14:08:37;6.40;;;4.63;;
20593;SDS011;10455;48.732;10.266;2024-01-27T14:13:39;7.70;;;4.28;;
20593;SDS011;10455;48.732;10.266;2024-01-27T14:18:44;9.52;;;5.93;;
20593;SDS011;10455;48.732;10.266;2024-01-27T14:23:46;4.63;;;3.75;;
20593;SDS011;10455;48.732;10.266;2024-01-27T14:28:49;6.57;;;4.40;;
20593;SDS011;10455;48.732;10.266;2024-01-27T14:33:52;10.38;;;7.32;;
20593;SDS011;10455;48.732;10.266;2024-01-27T14:38:55;6.50;;;5.10;;
20593;SDS011;10455;48.732;10.266;2024-01-27T14:43:57;5.28;;;3.38;;
20593;SDS011;10455;48.732;10.266;2024-01-27T14:49:01;7.78;;;4.25;;
20593;SDS011;10455;48.732;10.266;2024-01-27T14:54:03;6.50;;;3.70;;
20593;SDS011;10455;48.732;10.266;2024-01-27T14:59:06;5.47;;;4.55;;
20593;SDS011;10455;48.732;10.266;2024-01-27T15:04:09;7.38;;;5.32;;
20593;SDS011;10455;48.732;10.266;2024-01-27T15:09:11;8.87;;;5.37;;
20593;SDS011;10455;48.732;10.266;2024-01-27T15:14:15;6.30;;;5.70;;
20593;SDS011;10455;48.732;10.266;2024-01-27T15:19:19;7.37;;;5.13;;
20593;SDS011;10455;48.732;10.266;2024-01-27T15:24:21;6.60;;;5.90;;
20593;SDS011;10455;48.732;10.266;2024-01-27T15:29:23;13.70;;;5.70;;
20593;SDS011;10455;48.732;10.266;2024-01-27T15:34:26;11.17;;;6.03;;
20593;SDS011;10455;48.732;10.266;2024-01-27T15:39:28;9.73;;;5.97;;
20593;SDS011;10455;48.732;10.266;2024-01-27T15:44:30;9.90;;;6.57;;
20593;SDS011;10455;48.732;10.266;2024-01-27T15:49:33;10.50;;;7.40;;
20593;SDS011;10455;48.732;10.266;2024-01-27T15:54:35;9.57;;;6.73;;
20593;SDS011;10455;48.732;10.266;2024-01-27T15:59:39;8.73;;;7.30;;
20593;SDS011;10455;48.732;10.266;2024-01-27T16:04:42;11.17;;;7.13;;
20593;SDS011;10455;48.732;10.266;2024-01-27T16:09:45;12.27;;;7.67;;
20593;SDS011;10455;48.732;10.266;2024-01-27T16:14:47;11.27;;;6.57;;
20593;SDS011;10455;48.732;10.266;2024-01-27T16:19:50;7.83;;;6.50;;
20593;SDS011;10455;48.732;10.266;2024-01-27T16:24:53;11.07;;;7.93;;
20593;SDS011;10455;48.732;10.266;2024-01-27T16:29:55;24.00;;;16.20;;
20593;SDS011;10455;48.732;10.266;2024-01-27T16:34:59;25.13;;;16.93;;
20593;SDS011;10455;48.732;10.266;2024-01-27T16:40:00;13.03;;;8.50;;
20593;SDS011;10455;48.732;10.266;2024-01-27T16:45:04;14.33;;;8.20;;
20593;SDS011;10455;48.732;10.266;2024-01-27T16:50:08;14.03;;;10.37;;
20593;SDS011;10455;48.732;10.266;2024-01-27T16:55:11;16.43;;;9.63;;
20593;SDS011;10455;48.732;10.266;2024-01-27T17:00:13;16.70;;;9.97;;
20593;SDS011;10455;48.732;10.266;2024-01-27T17:05:16;14.57;;;9.80;;
20593;SDS011;10455;48.732;10.266;2024-01-27T17:10:19;11.93;;;9.17;;
20593;SDS011;10455;48.732;10.266;2024-01-27T17:15:21;14.40;;;9.30;;
20593;SDS011;10455;48.732;10.266;2024-01-27T17:20:24;15.17;;;12.43;;
20593;SDS011;10455;48.732;10.266;2024-01-27T17:25:26;13.53;;;11.57;;
20593;SDS011;10455;48.732;10.266;2024-01-27T17:30:28;12.77;;;10.10;;
20593;SDS011;10455;48.732;10.266;2024-01-27T17:35:31;21.17;;;11.53;;
20593;SDS011;10455;48.732;10.266;2024-01-27T17:40:33;20.17;;;10.83;;
20593;SDS011;10455;48.732;10.266;2024-01-27T17:45:35;15.83;;;9.90;;
20593;SDS011;10455;48.732;10.266;2024-01-27T17:50:38;20.07;;;11.50;;
20593;SDS011;10455;48.732;10.266;2024-01-27T17:55:40;23.13;;;16.43;;
20593;SDS011;10455;48.732;10.266;2024-01-27T18:00:42;21.67;;;13.43;;
20593;SDS011;10455;48.732;10.266;2024-01-27T18:05:45;19.60;;;12.30;;
20593;SDS011;10455;48.732;10.266;2024-01-27T18:10:50;29.70;;;22.33;;
20593;SDS011;10455;48.732;10.266;2024-01-27T18:15:52;28.03;;;20.03;;
20593;SDS011;10455;48.732;10.266;2024-01-27T18:20:56;18.07;;;14.73;;
20593;SDS011;10455;48.732;10.266;2024-01-27T18:25:58;23.20;;;14.40;;
20593;SDS011;10455;48.732;10.266;2024-01-27T18:30:59;20.47;;;14.07;;
20593;SDS011;10455;48.732;10.266;2024-01-27T18:36:03;21.53;;;13.27;;
20593;SDS011;10455;48.732;10.266;2024-01-27T18:41:05;21.53;;;13.47;;
20593;SDS011;10455;48.732;10.266;2024-01-27T18:46:06;19.13;;;14.73;;
20593;SDS011;10455;48.732;10.266;2024-01-27T18:51:10;23.60;;;16.13;;
20593;SDS011;10455;48.732;10.266;2024-01-27T18:56:12;35.67;;;22.53;;
20593;SDS011;10455;48.732;10.266;2024-01-27T19:01:14;23.27;;;17.53;;
20593;SDS011;10455;48.732;10.266;2024-01-27T19:06:17;21.13;;;14.37;;
20593;SDS011;10455;48.732;10.266;2024-01-27T19:11:19;24.17;;;17.67;;
20593;SDS011;10455;48.732;10.266;2024-01-27T19:16:21;19.33;;;13.40;;
20593;SDS011;10455;48.732;10.266;2024-01-27T19:21:24;21.23;;;13.77;;
20593;SDS011;10455;48.732;10.266;2024-01-27T19:26:26;22.30;;;18.27;;
20593;SDS011;10455;48.732;10.266;2024-01-27T19:31:28;20.77;;;17.13;;
20593;SDS011;10455;48.732;10.266;2024-01-27T19:36:32;26.60;;;20.43;;
20593;SDS011;10455;48.732;10.266;2024-01-27T19:41:34;25.10;;;19.97;;
20593;SDS011;10455;48.732;10.266;2024-01-27T19:46:36;48.60;;;37.63;;
20593;SDS011;10455;48.732;10.266;2024-01-27T19:51:42;27.10;;;21.40;;
20593;SDS011;10455;48.732;10.266;2024-01-27T19:56:45;17.10;;;13.17;;
20593;SDS011;10455;48.732;10.266;2024-01-27T20:01:46;22.43;;;13.93;;
20593;SDS011;10455;48.732;10.266;2024-01-27T20:06:50;15.67;;;11.70;;
20593;SDS011;10455;48.732;10.266;2024-01-27T20:11:56;21.87;;;16.20;;
20593;SDS011;10455;48.732;10.266;2024-01-27T20:16:58;27.37;;;16.07;;
20593;SDS011;10455;48.732;10.266;2024-01-27T20:22:01;22.27;;;16.17;;
20593;SDS011;10455;48.732;10.266;2024-01-27T20:27:03;23.23;;;16.67;;
20593;SDS011;10455;48.732;10.266;2024-01-27T20:32:05;22.93;;;17.17;;
20593;SDS011;10455;48.732;10.266;2024-01-27T20:37:08;26.80;;;18.60;;
20593;SDS011;10455;48.732;10.266;2024-01-27T20:42:10;30.13;;;19.93;;
20593;SDS011;10455;48.732;10.266;2024-01-27T20:47:14;22.47;;;16.10;;
20593;SDS011;10455;48.732;10.266;2024-01-27T20:52:17;25.70;;;18.53;;
20593;SDS011;10455;48.732;10.266;2024-01-27T20:57:19;27.60;;;20.30;;
20593;SDS011;10455;48.732;10.266;2024-01-27T21:02:21;22.03;;;18.63;;
20593;SDS011;10455;48.732;10.266;2024-01-27T21:07:25;38.63;;;22.73;;
20593;SDS011;10455;48.732;10.266;2024-01-27T21:12:28;28.60;;;20.47;;
20593;SDS011;10455;48.732;10.266;2024-01-27T21:17:29;23.67;;;18.80;;
20593;SDS011;10455;48.732;10.266;2024-01-27T21:22:33;31.20;;;22.23;;
20593;SDS011;10455;48.732;10.266;2024-01-27T21:27:34;25.77;;;20.57;;
20593;SDS011;10455;48.732;10.266;2024-01-27T21:32:36;33.80;;;22.83;;
20593;SDS011;10455;48.732;10.266;2024-01-27T21:37:40;29.00;;;23.70;;
20593;SDS011;10455;48.732;10.266;2024-01-27T21:42:42;23.27;;;17.20;;
20593;SDS011;10455;48.732;10.266;2024-01-27T21:47:44;29.70;;;18.73;;
20593;SDS011;10455;48.732;10.266;2024-01-27T21:52:48;65.37;;;38.60;;
20593;SDS011;10455;48.732;10.266;2024-01-27T21:57:50;64.10;;;35.40;;
20593;SDS011;10455;48.732;10.266;2024-01-27T22:02:53;32.70;;;20.03;;
20593;SDS011;10455;48.732;10.266;2024-01-27T22:07:56;43.13;;;25.20;;
20593;SDS011;10455;48.732;10.266;2024-01-27T22:12:59;44.03;;;27.13;;
20593;SDS011;10455;48.732;10.266;2024-01-27T22:18:00;38.50;;;22.13;;
20593;SDS011;10455;48.732;10.266;2024-01-27T22:23:04;31.03;;;20.37;;
20593;SDS011;10455;48.732;10.266;2024-01-27T22:33:16;28.93;;;20.07;;
20593;SDS011;10455;48.732;10.266;2024-01-27T22:38:20;70.43;;;40.10;;
20593;SDS011;10455;48.732;10.266;2024-01-27T22:43:22;37.33;;;24.80;;
20593;SDS011;10455;48.732;10.266;2024-01-27T22:48:24;27.70;;;19.97;;
20593;SDS011;10455;48.732;10.266;2024-01-27T22:53:28;32.60;;;19.67;;
20593;SDS011;10455;48.732;10.266;2024-01-27T22:58:30;27.97;;;18.47;;
20593;SDS011;10455;48.732;10.266;2024-01-27T23:03:32;33.13;;;20.53;;
20593;SDS011;10455;48.732;10.266;2024-01-27T23:08:35;33.20;;;19.33;;
20593;SDS011;10455;48.732;10.266;2024-01-27T23:13:37;25.20;;;17.27;;
20593;SDS011;10455;48.732;10.266;2024-01-27T23:18:40;24.70;;;17.23;;
20593;SDS011;10455;48.732;10.266;2024-01-27T23:23:43;25.97;;;19.07;;
20593;SDS011;10455;48.732;10.266;2024-01-27T23:28:45;26.20;;;18.50;;
20593;SDS011;10455;48.732;10.266;2024-01-27T23:33:47;21.13;;;15.00;;
20593;SDS011;10455;48.732;10.266;2024-01-27T23:38:50;26.73;;;14.07;;
20593;SDS011;10455;48.732;10.266;2024-01-27T23:43:52;28.07;;;15.47;;
20593;SDS011;10455;48.732;10.266;2024-01-27T23:48:54;18.47;;;12.90;;
20593;SDS011;10455;48.732;10.266;2024-01-27T23:53:57;23.27;;;14.73;;
20593;SDS011;10455;48.732;10.266;2024-01-27T23:58:59;21.73;;;15.07;;
